createdAt,value
2023-11-24T00:02:18.115Z,97782.94
2023-11-24T00:04:45.579Z,97788.22
2023-11-24T00:07:13.191Z,97779.38
2023-11-24T00:09:40.969Z,97773.22
2023-11-24T00:12:08.451Z,97766.22
2023-11-24T00:14:35.639Z,97788.25
2023-11-24T00:17:02.885Z,97782.91
2023-11-24T00:19:30.000Z,97796.69
2023-11-24T00:21:57.882Z,97802.88
2023-11-24T00:24:25.713Z,97797.63
2023-11-24T00:26:53.020Z,97790.66
2023-11-24T00:29:20.101Z,97796.03
2023-11-24T00:31:47.193Z,97788.81
2023-11-24T00:34:14.410Z,97787.03
2023-11-24T00:36:42.847Z,97785.34
2023-11-24T00:39:09.934Z,97795.19
2023-11-24T00:41:37.038Z,97784.66
2023-11-24T00:44:04.398Z,97803.91
2023-11-24T00:46:31.575Z,97788.38
2023-11-24T00:48:58.746Z,97791.63
2023-11-24T00:51:26.675Z,97795.19
2023-11-24T00:53:54.706Z,97792.03
2023-11-24T00:56:21.927Z,97786.16
2023-11-24T00:58:49.843Z,97793.25
2023-11-24T01:01:16.985Z,97793.22
2023-11-24T01:03:44.140Z,97792.88
2023-11-24T01:06:11.359Z,97792.22
2023-11-24T01:08:38.490Z,97784.78
2023-11-24T01:11:05.711Z,97783.84
2023-11-24T01:13:34.278Z,97790.84
2023-11-24T01:16:03.732Z,97789.16
2023-11-24T01:18:31.472Z,97784.69
2023-11-24T01:20:58.590Z,97786.38
2023-11-24T01:23:27.883Z,97788.38
2023-11-24T01:25:55.808Z,97798.75
2023-11-24T01:28:24.376Z,97825.03
2023-11-24T01:30:53.452Z,97844.19
2023-11-24T01:33:22.078Z,97807.19
2023-11-24T01:35:50.609Z,97840.28
2023-11-24T01:38:17.653Z,97857.56
2023-11-24T01:40:44.753Z,97866.25
2023-11-24T01:43:11.827Z,97850.44
2023-11-24T01:45:39.013Z,97837.31
2023-11-24T01:48:08.769Z,97828.88
2023-11-24T01:50:36.780Z,97829.88
2023-11-24T01:53:04.134Z,97821.78
2023-11-24T01:55:32.064Z,97817.75
2023-11-24T01:57:59.596Z,97820.28
2023-11-24T02:00:27.675Z,97815.19
2023-11-24T02:02:55.745Z,97806.34
2023-11-24T02:05:23.304Z,97807.56
2023-11-24T02:07:50.948Z,97802.38
2023-11-24T02:10:18.369Z,97802.38
2023-11-24T02:12:45.419Z,97803.38
2023-11-24T02:15:12.536Z,97818.19
2023-11-24T02:17:39.913Z,97813.06
2023-11-24T02:20:15.199Z,97808.59
2023-11-24T02:22:43.845Z,97817.25
2023-11-24T02:25:12.494Z,97821.47
2023-11-24T02:27:39.904Z,97812.91
2023-11-24T02:30:08.185Z,97813.91
2023-11-24T02:32:35.448Z,97814.91
2023-11-24T02:35:04.041Z,97822.53
2023-11-24T02:37:31.078Z,97804.56
2023-11-24T02:39:58.261Z,97812.84
2023-11-24T02:42:26.044Z,97808.44
2023-11-24T02:44:53.412Z,97809.34
2023-11-24T02:47:20.511Z,97805.56
2023-11-24T02:49:48.217Z,97801.38
2023-11-24T02:52:15.362Z,97805.22
2023-11-24T02:54:42.484Z,97797.06
2023-11-24T02:57:09.581Z,97807.63
2023-11-24T02:59:36.594Z,97792.84
2023-11-24T03:02:03.835Z,97793.69
2023-11-24T03:04:31.195Z,97785.47
2023-11-24T03:06:58.897Z,97788.97
2023-11-24T03:09:27.321Z,97787.84
2023-11-24T03:11:54.563Z,97774.03
2023-11-24T03:14:22.088Z,97782.97
2023-11-24T03:16:50.054Z,97775.16
2023-11-24T03:19:20.846Z,97768.06
2023-11-24T03:21:48.178Z,97769.31
2023-11-24T03:24:15.465Z,97771.59
2023-11-24T03:26:43.052Z,97774.22
2023-11-24T03:29:10.195Z,97766.19
2023-11-24T03:31:40.086Z,97782.06
2023-11-24T03:34:08.157Z,97774.97
2023-11-24T03:36:35.295Z,97757.84
2023-11-24T03:39:02.549Z,97762.91
2023-11-24T03:41:29.641Z,97765.88
2023-11-24T03:43:56.664Z,97772.69
2023-11-24T03:46:23.828Z,97770.00
2023-11-24T03:48:51.326Z,97774.44
2023-11-24T03:51:19.936Z,97773.63
2023-11-24T03:53:47.115Z,97772.00
2023-11-24T03:56:17.960Z,97777.06
2023-11-24T03:58:45.276Z,97771.00
2023-11-24T04:01:16.361Z,97778.94
2023-11-24T04:03:48.082Z,97765.03
2023-11-24T04:06:16.347Z,97782.41
2023-11-24T04:08:44.395Z,97772.28
2023-11-24T04:11:11.903Z,97763.66
2023-11-24T04:13:39.281Z,97762.88
2023-11-24T04:16:08.025Z,97770.03
2023-11-24T04:18:35.430Z,97770.72
2023-11-24T04:21:02.717Z,97759.88
2023-11-24T04:23:29.821Z,97754.91
2023-11-24T04:25:56.792Z,97752.03
2023-11-24T04:28:23.886Z,97739.44
2023-11-24T04:30:50.912Z,97739.00
2023-11-24T04:33:18.055Z,97744.63
2023-11-24T04:35:45.240Z,97751.78
2023-11-24T04:38:12.348Z,97757.38
2023-11-24T04:40:40.058Z,97754.50
2023-11-24T04:43:07.218Z,97750.19
2023-11-24T04:45:36.491Z,97747.69
2023-11-24T04:48:04.201Z,97753.84
2023-11-24T04:50:31.295Z,97755.16
2023-11-24T04:52:58.369Z,97755.16
2023-11-24T04:55:27.872Z,97758.66
2023-11-24T04:57:55.713Z,97757.72
2023-11-24T05:00:22.926Z,97770.09
2023-11-24T05:02:50.821Z,97776.38
2023-11-24T05:05:21.043Z,97776.06
2023-11-24T05:07:48.112Z,97762.66
2023-11-24T05:10:15.243Z,97771.94
2023-11-24T05:12:42.318Z,97767.38
2023-11-24T05:15:10.048Z,97781.44
2023-11-24T05:17:37.503Z,97771.00
2023-11-24T05:20:07.099Z,97790.88
2023-11-24T05:22:34.746Z,97792.47
2023-11-24T05:25:01.856Z,97805.56
2023-11-24T05:27:28.993Z,97807.56
2023-11-24T05:29:56.101Z,97806.56
2023-11-24T05:32:23.146Z,97804.28
2023-11-24T05:34:52.313Z,97800.84
2023-11-24T05:37:19.503Z,97797.53
2023-11-24T05:39:46.753Z,97793.84
2023-11-24T05:42:14.896Z,97803.38
2023-11-24T05:44:42.682Z,97804.19
2023-11-24T05:47:09.739Z,97815.81
2023-11-24T05:49:36.777Z,97809.56
2023-11-24T05:52:04.034Z,97820.50
2023-11-24T05:54:33.409Z,97811.94
2023-11-24T05:57:00.514Z,97825.25
2023-11-24T05:59:30.112Z,97826.69
2023-11-24T06:01:58.544Z,97823.25
2023-11-24T06:04:25.648Z,97823.31
2023-11-24T06:06:52.815Z,97825.81
2023-11-24T06:09:20.080Z,97823.78
2023-11-24T06:11:47.097Z,97824.47
2023-11-24T06:14:14.297Z,97830.63
2023-11-24T06:16:41.352Z,97825.13
2023-11-24T06:19:08.440Z,97823.31
2023-11-24T06:21:37.330Z,97836.44
2023-11-24T06:24:04.924Z,97843.56
2023-11-24T06:26:34.267Z,97836.38
2023-11-24T06:29:01.571Z,97845.25
2023-11-24T06:31:29.255Z,97846.44
2023-11-24T06:33:56.515Z,97859.22
2023-11-24T06:36:23.715Z,97859.84
2023-11-24T06:38:50.787Z,97855.59
2023-11-24T06:41:17.905Z,97852.81
2023-11-24T06:43:45.034Z,97847.44
2023-11-24T06:46:13.707Z,97860.19
2023-11-24T06:48:40.915Z,97866.44
2023-11-24T06:51:08.611Z,97864.63
2023-11-24T06:53:35.735Z,97861.16
2023-11-24T06:56:03.789Z,97853.00
2023-11-24T06:58:30.898Z,97880.91
2023-11-24T07:00:57.996Z,97863.09
2023-11-24T07:03:25.078Z,97858.66
2023-11-24T07:05:52.120Z,97865.75
2023-11-24T07:08:19.279Z,97865.44
2023-11-24T07:10:46.479Z,97866.25
2023-11-24T07:13:13.607Z,97867.97
2023-11-24T07:15:40.819Z,97862.84
2023-11-24T07:18:08.344Z,97860.59
2023-11-24T07:20:35.455Z,97861.28
2023-11-24T07:23:02.799Z,97862.94
2023-11-24T07:25:29.823Z,97868.28
2023-11-24T07:27:57.450Z,97863.81
2023-11-24T07:30:26.597Z,97858.00
2023-11-24T07:32:53.883Z,97867.63
2023-11-24T07:35:21.090Z,97865.94
2023-11-24T07:37:48.147Z,97860.53
2023-11-24T07:40:16.050Z,97854.16
2023-11-24T07:42:45.469Z,97847.56
2023-11-24T07:45:13.537Z,97851.47
2023-11-24T07:47:41.721Z,97863.75
2023-11-24T07:50:09.538Z,97853.97
2023-11-24T07:52:38.116Z,97865.25
2023-11-24T07:55:07.044Z,97859.50
2023-11-24T07:57:34.665Z,97856.94
2023-11-24T08:00:02.063Z,97857.13
2023-11-24T08:02:29.494Z,97866.53
2023-11-24T08:04:56.727Z,97867.97
2023-11-24T08:07:23.898Z,97858.38
2023-11-24T08:09:51.045Z,97850.81
2023-11-24T08:12:18.249Z,97847.94
2023-11-24T08:14:45.379Z,97840.03
2023-11-24T08:17:12.807Z,97844.53
2023-11-24T08:19:39.947Z,97840.31
2023-11-24T08:22:07.123Z,97841.84
2023-11-24T08:24:35.162Z,97843.22
2023-11-24T08:27:02.375Z,97838.75
2023-11-24T08:29:30.089Z,97824.72
2023-11-24T08:31:58.948Z,97813.19
2023-11-24T08:34:26.333Z,97828.38
2023-11-24T08:36:53.630Z,97827.00
2023-11-24T08:39:21.004Z,97828.28
2023-11-24T08:41:51.642Z,97819.09
2023-11-24T08:44:20.262Z,97820.31
2023-11-24T08:46:47.351Z,97804.56
2023-11-24T08:49:14.852Z,97822.81
2023-11-24T08:51:42.237Z,97806.97
2023-11-24T08:54:10.384Z,97810.03
2023-11-24T08:56:38.598Z,97816.44
2023-11-24T08:59:07.007Z,97820.00
2023-11-24T09:01:34.197Z,97816.16
2023-11-24T09:04:01.467Z,97802.56
2023-11-24T09:06:29.039Z,97818.94
2023-11-24T09:08:57.839Z,97806.28
2023-11-24T09:11:25.197Z,97805.94
2023-11-24T09:13:53.163Z,97816.88
2023-11-24T09:16:21.707Z,97819.84
2023-11-24T09:18:49.168Z,97815.19
2023-11-24T09:21:19.082Z,97817.13
2023-11-24T09:23:47.595Z,97812.50
2023-11-24T09:26:14.636Z,97804.56
2023-11-24T09:28:41.621Z,97811.38
2023-11-24T09:31:14.109Z,97819.31
2023-11-24T09:33:41.501Z,97815.06
2023-11-24T09:36:09.668Z,97831.59
2023-11-24T09:38:36.693Z,97816.03
2023-11-24T09:41:10.171Z,97827.28
2023-11-24T09:43:38.905Z,97810.84
2023-11-24T09:46:08.477Z,97820.75
2023-11-24T09:48:36.695Z,97803.34
2023-11-24T09:51:09.277Z,97814.78
2023-11-24T09:53:36.362Z,97799.03
2023-11-24T09:56:05.137Z,97815.13
2023-11-24T09:58:33.183Z,97811.09
2023-11-24T10:01:27.047Z,97797.66
2023-11-24T10:03:56.812Z,97792.47
2023-11-24T10:06:24.145Z,97799.97
2023-11-24T10:08:52.493Z,97799.38
2023-11-24T10:11:29.574Z,97785.03
2023-11-24T10:13:57.768Z,97792.44
2023-11-24T10:16:25.332Z,97801.97
2023-11-24T10:18:57.115Z,97792.59
2023-11-24T10:21:30.538Z,97795.19
2023-11-24T10:23:59.980Z,97789.00
2023-11-24T10:26:27.364Z,97786.31
2023-11-24T10:28:57.204Z,97776.25
2023-11-24T10:31:24.582Z,97769.00
2023-11-24T10:33:52.821Z,97777.97
2023-11-24T10:36:26.384Z,97768.66
2023-11-24T10:39:03.558Z,97784.41
2023-11-24T10:41:33.322Z,97781.88
2023-11-24T10:44:02.614Z,97785.34
2023-11-24T10:46:37.452Z,97789.66
2023-11-24T10:49:14.385Z,97791.97
2023-11-24T10:52:01.915Z,97791.41
2023-11-24T10:54:36.570Z,97789.63
2023-11-24T10:57:06.544Z,97804.53
2023-11-24T10:59:37.265Z,97786.44
2023-11-24T11:02:08.328Z,97777.88
2023-11-24T11:04:37.171Z,97799.63
2023-11-24T11:07:54.647Z,97797.81
2023-11-24T11:10:32.234Z,97803.81
2023-11-24T11:13:01.954Z,97791.16
2023-11-24T11:15:32.461Z,97788.81
2023-11-24T11:18:10.095Z,97787.59
2023-11-24T11:20:41.623Z,97789.31
2023-11-24T11:23:24.105Z,97792.81
2023-11-24T11:25:53.605Z,97790.06
2023-11-24T11:28:21.118Z,97775.38
2023-11-24T11:30:50.073Z,97784.78
2023-11-24T11:33:21.518Z,97779.63
2023-11-24T11:35:53.570Z,97785.34
2023-11-24T11:38:51.505Z,97783.97
2023-11-24T11:41:45.975Z,97777.56
2023-11-24T11:44:27.333Z,97781.50
2023-11-24T11:47:25.299Z,97784.81
2023-11-24T11:49:55.956Z,97776.13
2023-11-24T11:52:29.310Z,97789.97
2023-11-24T11:55:02.067Z,97795.22
2023-11-24T11:57:29.394Z,97781.63
2023-11-24T11:59:57.309Z,97791.75
2023-11-24T12:02:24.919Z,97801.28
2023-11-24T12:04:52.300Z,97794.56
2023-11-24T12:07:20.879Z,97802.34
2023-11-24T12:09:48.931Z,97799.72
2023-11-24T12:12:16.435Z,97799.72
2023-11-24T12:14:44.358Z,97808.88
2023-11-24T12:17:12.220Z,97813.69
2023-11-24T12:19:41.948Z,97802.34
2023-11-24T12:22:11.556Z,97799.66
2023-11-24T12:24:41.330Z,97803.75
2023-11-24T12:27:10.135Z,97819.50
2023-11-24T12:29:42.560Z,97819.34
2023-11-24T12:32:12.740Z,97816.63
2023-11-24T12:34:46.500Z,97816.31
2023-11-24T12:37:14.238Z,97820.25
2023-11-24T12:39:42.194Z,97825.69
2023-11-24T12:42:09.375Z,97821.13
2023-11-24T12:44:37.764Z,97812.50
2023-11-24T12:47:16.727Z,97817.28
2023-11-24T12:50:03.212Z,97826.50
2023-11-24T12:52:33.052Z,97824.00
2023-11-24T12:55:00.809Z,97827.84
2023-11-24T12:57:28.685Z,97823.75
2023-11-24T12:59:57.777Z,97818.13
2023-11-24T13:02:28.638Z,97826.03
2023-11-24T13:04:55.903Z,97825.25
2023-11-24T13:07:23.135Z,97814.09
2023-11-24T13:09:52.151Z,97811.31
2023-11-24T13:12:19.437Z,97817.31
2023-11-24T13:14:46.932Z,97818.53
2023-11-24T13:17:14.091Z,97809.84
2023-11-24T13:19:41.157Z,97807.44
2023-11-24T13:22:10.926Z,97820.44
2023-11-24T13:24:38.773Z,97811.44
2023-11-24T13:27:06.607Z,97819.38
2023-11-24T13:29:34.015Z,97819.78
2023-11-24T13:32:01.825Z,97818.19
2023-11-24T13:34:29.665Z,97815.69
2023-11-24T13:36:59.177Z,97813.38
2023-11-24T13:39:30.341Z,97821.41
2023-11-24T13:41:58.202Z,97817.53
2023-11-24T13:44:25.420Z,97818.91
2023-11-24T13:46:58.367Z,97822.97
2023-11-24T13:49:26.009Z,97823.84
2023-11-24T13:51:54.388Z,97831.31
2023-11-24T13:54:24.717Z,97831.13
2023-11-24T13:56:54.859Z,97830.47
2023-11-24T13:59:22.298Z,97838.88
2023-11-24T14:01:50.585Z,97839.84
2023-11-24T14:04:18.424Z,97831.13
2023-11-24T14:06:48.620Z,97830.88
2023-11-24T14:09:30.680Z,97832.81
2023-11-24T14:11:57.910Z,97832.94
2023-11-24T14:14:25.296Z,97841.44
2023-11-24T14:16:52.461Z,97849.28
2023-11-24T14:19:19.875Z,97849.34
2023-11-24T14:21:46.947Z,97856.44
2023-11-24T14:24:15.116Z,97848.53
2023-11-24T14:26:45.838Z,97851.13
2023-11-24T14:29:13.904Z,97853.78
2023-11-24T14:31:41.861Z,97846.84
2023-11-24T14:34:09.468Z,97848.59
2023-11-24T14:36:38.425Z,97848.56
2023-11-24T14:39:17.344Z,97859.78
2023-11-24T14:41:44.437Z,97856.50
2023-11-24T14:44:11.539Z,97852.81
2023-11-24T14:46:39.686Z,97852.53
2023-11-24T14:49:06.917Z,97846.38
2023-11-24T14:51:37.298Z,97859.78
2023-11-24T14:54:04.659Z,97860.97
2023-11-24T14:56:32.903Z,97859.88
2023-11-24T14:59:02.949Z,97864.97
2023-11-24T15:01:34.178Z,97859.56
2023-11-24T15:04:01.512Z,97862.28
2023-11-24T15:06:30.276Z,97869.25
2023-11-24T15:09:01.908Z,97869.97
2023-11-24T15:11:39.623Z,97872.50
2023-11-24T15:14:14.646Z,97871.59
2023-11-24T15:17:03.725Z,97877.72
2023-11-24T15:19:35.623Z,97868.25
2023-11-24T15:22:07.887Z,97886.28
2023-11-24T15:24:36.029Z,97887.13
2023-11-24T15:27:05.540Z,97884.38
2023-11-24T15:29:34.113Z,97888.69
2023-11-24T15:32:01.417Z,97887.66
2023-11-24T15:34:30.140Z,97892.63
2023-11-24T15:36:57.464Z,97899.59
2023-11-24T15:39:44.270Z,97893.19
2023-11-24T15:42:16.003Z,97902.63
2023-11-24T15:44:43.473Z,97899.16
2023-11-24T15:47:12.160Z,97902.50
2023-11-24T15:49:43.478Z,97903.53
2023-11-24T15:52:14.816Z,97902.47
2023-11-24T15:54:43.212Z,97905.00
2023-11-24T15:57:11.342Z,97902.94
2023-11-24T15:59:43.787Z,97911.56
2023-11-24T16:02:14.578Z,97909.19
2023-11-24T16:04:45.146Z,97913.03
2023-11-24T16:07:18.410Z,97909.00
2023-11-24T16:09:46.315Z,97901.75
2023-11-24T16:12:14.869Z,97901.56
2023-11-24T16:14:44.888Z,97901.38
2023-11-24T16:17:12.220Z,97908.53
2023-11-24T16:19:39.631Z,97899.03
2023-11-24T16:22:07.045Z,97905.22
2023-11-24T16:24:34.708Z,97893.59
2023-11-24T16:27:04.155Z,97890.97
2023-11-24T16:29:31.386Z,97891.91
2023-11-24T16:32:01.030Z,97894.53
2023-11-24T16:34:28.474Z,97891.66
2023-11-24T16:36:59.105Z,97896.84
2023-11-24T16:39:28.984Z,97899.34
2023-11-24T16:41:58.462Z,97891.66
2023-11-24T16:44:25.839Z,97890.41
2023-11-24T16:46:59.450Z,97899.03
2023-11-24T16:49:31.158Z,97892.03
2023-11-24T16:52:01.236Z,97885.97
2023-11-24T16:54:28.502Z,97882.91
2023-11-24T16:56:55.545Z,97886.38
2023-11-24T16:59:23.055Z,97891.00
2023-11-24T17:01:53.116Z,97892.66
2023-11-24T17:04:20.951Z,97893.22
2023-11-24T17:06:51.325Z,97897.81
2023-11-24T17:09:20.037Z,97890.13
2023-11-24T17:11:47.543Z,97892.03
2023-11-24T17:14:19.266Z,97891.59
2023-11-24T17:16:46.821Z,97892.25
2023-11-24T17:19:15.490Z,97887.41
2023-11-24T17:21:44.974Z,97877.38
2023-11-24T17:24:13.179Z,97878.91
2023-11-24T17:26:41.609Z,97880.34
2023-11-24T17:29:14.628Z,97879.38
2023-11-24T17:31:44.122Z,97876.31
2023-11-24T17:34:14.017Z,97882.34
2023-11-24T17:36:41.453Z,97880.63
2023-11-24T17:39:10.433Z,97887.53
2023-11-24T17:41:38.042Z,97884.97
2023-11-24T17:44:12.458Z,97888.59
2023-11-24T17:46:40.225Z,97890.31
2023-11-24T17:49:08.018Z,97890.09
2023-11-24T17:51:35.004Z,97884.56
2023-11-24T17:54:02.019Z,97879.31
2023-11-24T17:56:29.473Z,97883.59
2023-11-24T17:58:59.678Z,97880.41
2023-11-24T18:01:26.939Z,97886.13
2023-11-24T18:03:54.172Z,97887.81
2023-11-24T18:06:21.350Z,97891.88
2023-11-24T18:08:49.626Z,97881.38
2023-11-24T18:11:16.781Z,97881.81
2023-11-24T18:13:43.886Z,97877.84
2023-11-24T18:16:11.971Z,97876.13
2023-11-24T18:18:39.654Z,97876.56
2023-11-24T18:21:07.047Z,97874.22
2023-11-24T18:23:35.969Z,97871.50
2023-11-24T18:26:03.336Z,97874.16
2023-11-24T18:28:30.582Z,97866.59
2023-11-24T18:30:58.979Z,97872.47
2023-11-24T18:33:26.849Z,97878.63
2023-11-24T18:35:54.041Z,97871.09
2023-11-24T18:38:21.215Z,97865.34
2023-11-24T18:40:48.514Z,97872.75
2023-11-24T18:43:26.385Z,97860.88
2023-11-24T18:46:02.486Z,97867.97
2023-11-24T18:48:29.963Z,97861.06
2023-11-24T18:50:57.948Z,97866.28
2023-11-24T18:53:25.099Z,97859.06
2023-11-24T18:55:52.278Z,97864.09
2023-11-24T18:58:19.465Z,97872.47
2023-11-24T19:00:46.910Z,97870.91
2023-11-24T19:03:13.991Z,97875.75
2023-11-24T19:05:42.410Z,97870.47
2023-11-24T19:08:09.581Z,97874.78
2023-11-24T19:10:38.696Z,97877.97
2023-11-24T19:13:05.805Z,97882.50
2023-11-24T19:15:32.829Z,97878.91
2023-11-24T19:17:59.923Z,97877.78
2023-11-24T19:20:26.928Z,97866.75
2023-11-24T19:22:54.042Z,97866.75
2023-11-24T19:25:21.194Z,97859.69
2023-11-24T19:27:48.257Z,97855.06
2023-11-24T19:30:15.457Z,97855.31
2023-11-24T19:32:42.509Z,97859.69
2023-11-24T19:35:09.633Z,97851.06
2023-11-24T19:37:36.854Z,97845.06
2023-11-24T19:40:06.920Z,97844.47
2023-11-24T19:42:34.126Z,97847.09
2023-11-24T19:45:01.222Z,97833.97
2023-11-24T19:47:28.617Z,97841.19
2023-11-24T19:49:55.854Z,97827.22
2023-11-24T19:52:23.020Z,97832.16
2023-11-24T19:54:50.168Z,97833.81
2023-11-24T19:57:17.489Z,97828.63
2023-11-24T19:59:44.521Z,97832.94
2023-11-24T20:02:13.367Z,97835.75
2023-11-24T20:04:41.322Z,97838.84
2023-11-24T20:07:08.546Z,97827.84
2023-11-24T20:09:37.792Z,97836.44
2023-11-24T20:12:05.147Z,97842.84
2023-11-24T20:14:32.682Z,97836.41
2023-11-24T20:16:59.885Z,97832.56
2023-11-24T20:19:27.215Z,97838.81
2023-11-24T20:21:56.129Z,97829.00
2023-11-24T20:24:27.418Z,97833.50
2023-11-24T20:26:54.642Z,97834.78
2023-11-24T20:29:22.038Z,97824.53
2023-11-24T20:31:49.901Z,97826.94
2023-11-24T20:34:17.367Z,97824.72
2023-11-24T20:36:45.071Z,97815.97
2023-11-24T20:39:13.847Z,97821.38
2023-11-24T20:41:42.065Z,97815.44
2023-11-24T20:44:09.442Z,97817.09
2023-11-24T20:46:36.656Z,97830.44
2023-11-24T20:49:03.927Z,97820.59
2023-11-24T20:53:04.863Z,97820.44
2023-11-24T20:55:33.410Z,97814.50
2023-11-24T20:58:00.541Z,97811.41
2023-11-24T21:00:27.653Z,97811.31
2023-11-24T21:02:54.853Z,97815.00
2023-11-24T21:05:22.143Z,97817.69
2023-11-24T21:07:51.426Z,97820.22
2023-11-24T21:10:18.614Z,97820.97
2023-11-24T21:12:46.097Z,97807.94
2023-11-24T21:15:15.610Z,97811.03
2023-11-24T21:17:43.044Z,97813.66
2023-11-24T21:20:11.443Z,97808.84
2023-11-24T21:22:38.704Z,97814.00
2023-11-24T21:25:06.984Z,97811.97
2023-11-24T21:27:34.175Z,97808.06
2023-11-24T21:30:01.214Z,97813.91
2023-11-24T21:32:28.514Z,97809.41
2023-11-24T21:34:55.567Z,97810.84
2023-11-24T21:37:27.749Z,97818.84
2023-11-24T21:40:01.761Z,97816.53
2023-11-24T21:42:29.584Z,97813.94
2023-11-24T21:45:00.922Z,97824.66
2023-11-24T21:47:32.444Z,97826.66
2023-11-24T21:49:59.744Z,97835.31
2023-11-24T21:52:29.823Z,97840.56
2023-11-24T21:54:57.059Z,97839.22
2023-11-24T21:57:24.121Z,97838.97
2023-11-24T21:59:51.322Z,97849.03
2023-11-24T22:02:18.858Z,97850.13
2023-11-24T22:04:46.117Z,97850.25
2023-11-24T22:07:13.764Z,97848.56
2023-11-24T22:09:40.879Z,97853.91
2023-11-24T22:12:08.114Z,97842.47
2023-11-24T22:14:35.174Z,97847.94
2023-11-24T22:17:02.323Z,97846.78
2023-11-24T22:19:29.507Z,97844.91
2023-11-24T22:21:56.555Z,97850.84
2023-11-24T22:24:23.590Z,97853.56
2023-11-24T22:26:51.921Z,97848.25
2023-11-24T22:29:18.992Z,97851.00
2023-11-24T22:31:46.823Z,97858.88
2023-11-24T22:34:13.861Z,97843.84
2023-11-24T22:36:40.909Z,97846.22
2023-11-24T22:39:08.578Z,97851.44
2023-11-24T22:41:35.734Z,97843.50
2023-11-24T22:44:02.793Z,97835.06
2023-11-24T22:46:30.017Z,97851.31
2023-11-24T22:48:57.246Z,97842.06
2023-11-24T22:51:29.458Z,97846.25
2023-11-24T22:53:57.078Z,97840.53
2023-11-24T22:56:26.681Z,97835.94
2023-11-24T22:58:56.835Z,97847.16
2023-11-24T23:01:26.651Z,97841.16
2023-11-24T23:04:01.229Z,97841.59
2023-11-24T23:06:33.141Z,97833.03
2023-11-24T23:09:00.623Z,97848.09
2023-11-24T23:11:30.176Z,97835.13
2023-11-24T23:13:58.870Z,97836.75
2023-11-24T23:16:26.423Z,97849.53
2023-11-24T23:18:53.859Z,97835.72
2023-11-24T23:21:24.080Z,97828.69
2023-11-24T23:23:52.399Z,97827.19
2023-11-24T23:26:19.795Z,97828.94
2023-11-24T23:28:49.493Z,97829.84
2023-11-24T23:31:18.284Z,97829.16
2023-11-24T23:33:49.685Z,97824.78
2023-11-24T23:36:18.825Z,97829.63
2023-11-24T23:38:47.400Z,97830.72
2023-11-24T23:41:14.677Z,97828.59
2023-11-24T23:43:41.855Z,97817.47
2023-11-24T23:46:11.022Z,97830.50
2023-11-24T23:48:38.466Z,97825.78
2023-11-24T23:51:07.817Z,97823.34
2023-11-24T23:53:35.222Z,97836.06
2023-11-24T23:56:02.338Z,97830.69
2023-11-24T23:58:29.589Z,97839.13
